Flugplatz Osnabrück-Atterheide

Für EDWO sind keine METAR/TAF Berichte vorhanden.
Es werden die Flugwettermeldungen vom Flugplatz Münster Osnabrück in 25 km Entfernung angezeigt.

Bericht für EDDG

vom 22.01. um 18:50 UTC

Wind 6 kt aus 190°

Sichtweite 10 km oder mehr

gute Sicht, keine Wolken < 5000 ft, keine CB, keine Wettererscheinungen (CAVOK)

Temperatur 3.0°C

Taupunkt 1.0°C

Luftfeuchtigkeit 87%

Luftdruck 996 hPa

keine wesentliche Wetteränderung innerhalb den nächsten 2 Stunden zu erwarten

EDDG 221850Z 19006KT CAVOK 03/01 Q0996 NOSIG

Prognose für EDDG

vom 22.01. um 17:00 UTC

Zwischen 18:00 UTC und 18:00 UTC

Wind 4 kt aus 170°

Sichtweite 10 km oder mehr

gering bewölkt in 3000 ft


Zwischen 23:00 UTC und 07:00 UTC zeitweise mit einer Wahrscheinlichkeit von 30%

Sichtweite 2500 m

Nebelschwaden


Am 23.01. zwischen 07:00 UTC und 12:00 UTC zeitweise mit einer Wahrscheinlichkeit von 30%

aufgebrochene Bewölkung in 1200 ft


Am 23.01. zwischen 08:00 UTC und 14:00 UTC zeitweise

Wind 9 kt aus 210°

TAF EDDG 221700Z 2218/2318 17004KT 9999 FEW030 PROB30 TEMPO 2223/2307 2500 BCFG PROB30 TEMPO 2307/2312 BKN012 TEMPO 2308/2314 21009KT
Impressum